sensor_id;sensor_type;location;lat;lon;timestamp;pressure;altitude;pressure_sealevel;temperature;humidity
60244;BME280;46106;51.468;5.814;2023-11-19T00:00:28;100634.47;;;12.92;100.00
60244;BME280;46106;51.468;5.814;2023-11-19T00:02:54;100625.16;;;12.83;100.00
60244;BME280;46106;51.468;5.814;2023-11-19T00:05:21;100625.91;;;12.85;100.00
60244;BME280;46106;51.468;5.814;2023-11-19T00:07:46;100632.84;;;12.99;100.00
60244;BME280;46106;51.468;5.814;2023-11-19T00:10:14;100642.53;;;13.03;100.00
60244;BME280;46106;51.468;5.814;2023-11-19T00:12:42;100621.44;;;13.14;100.00
60244;BME280;46106;51.468;5.814;2023-11-19T00:15:10;100623.16;;;13.05;100.00
60244;BME280;46106;51.468;5.814;2023-11-19T00:17:40;100630.69;;;13.13;100.00
60244;BME280;46106;51.468;5.814;2023-11-19T00:20:14;100622.44;;;13.13;100.00
60244;BME280;46106;51.468;5.814;2023-11-19T00:22:40;100621.88;;;13.19;100.00
60244;BME280;46106;51.468;5.814;2023-11-19T00:25:07;100619.13;;;13.19;100.00
60244;BME280;46106;51.468;5.814;2023-11-19T00:27:35;100602.91;;;13.16;100.00
60244;BME280;46106;51.468;5.814;2023-11-19T00:30:00;100604.38;;;13.10;100.00
60244;BME280;46106;51.468;5.814;2023-11-19T00:32:26;100611.47;;;13.22;100.00
60244;BME280;46106;51.468;5.814;2023-11-19T00:34:51;100599.47;;;13.14;100.00
60244;BME280;46106;51.468;5.814;2023-11-19T00:37:17;100588.59;;;13.12;100.00
60244;BME280;46106;51.468;5.814;2023-11-19T00:39:43;100577.75;;;13.20;100.00
60244;BME280;46106;51.468;5.814;2023-11-19T00:42:11;100569.50;;;13.20;100.00
60244;BME280;46106;51.468;5.814;2023-11-19T00:44:36;100568.19;;;13.24;100.00
60244;BME280;46106;51.468;5.814;2023-11-19T00:47:02;100562.69;;;13.24;100.00
60244;BME280;46106;51.468;5.814;2023-11-19T00:49:28;100569.94;;;13.16;100.00
60244;BME280;46106;51.468;5.814;2023-11-19T00:51:54;100569.66;;;13.19;100.00
60244;BME280;46106;51.468;5.814;2023-11-19T00:54:20;100572.69;;;13.06;100.00
60244;BME280;46106;51.468;5.814;2023-11-19T00:56:46;100563.59;;;13.05;100.00
60244;BME280;46106;51.468;5.814;2023-11-19T00:59:12;100569.94;;;13.16;100.00
60244;BME280;46106;51.468;5.814;2023-11-19T01:01:37;100570.78;;;13.16;100.00
60244;BME280;46106;51.468;5.814;2023-11-19T01:04:03;100555.75;;;13.11;100.00
60244;BME280;46106;51.468;5.814;2023-11-19T01:06:29;100564.28;;;13.17;100.00
60244;BME280;46106;51.468;5.814;2023-11-19T01:08:55;100557.34;;;13.13;100.00
60244;BME280;46106;51.468;5.814;2023-11-19T01:11:22;100578.03;;;13.17;100.00
60244;BME280;46106;51.468;5.814;2023-11-19T01:13:49;100556.63;;;13.21;100.00
60244;BME280;46106;51.468;5.814;2023-11-19T01:16:15;100562.69;;;13.15;100.00
60244;BME280;46106;51.468;5.814;2023-11-19T01:18:40;100566.75;;;13.11;100.00
60244;BME280;46106;51.468;5.814;2023-11-19T01:21:08;100573.97;;;13.21;100.00
60244;BME280;46106;51.468;5.814;2023-11-19T01:23:34;100564.44;;;13.26;100.00
60244;BME280;46106;51.468;5.814;2023-11-19T01:26:00;100576.56;;;13.23;100.00
60244;BME280;46106;51.468;5.814;2023-11-19T01:28:25;100561.09;;;13.22;100.00
60244;BME280;46106;51.468;5.814;2023-11-19T01:30:51;100567.19;;;13.16;100.00
60244;BME280;46106;51.468;5.814;2023-11-19T01:33:16;100561.53;;;13.17;100.00
60244;BME280;46106;51.468;5.814;2023-11-19T01:35:42;100549.69;;;13.17;100.00
60244;BME280;46106;51.468;5.814;2023-11-19T01:38:07;100547.38;;;13.22;100.00
60244;BME280;46106;51.468;5.814;2023-11-19T01:40:37;100538.09;;;13.13;100.00
60244;BME280;46106;51.468;5.814;2023-11-19T01:43:03;100529.13;;;13.11;100.00
60244;BME280;46106;51.468;5.814;2023-11-19T01:45:30;100526.69;;;12.98;100.00
60244;BME280;46106;51.468;5.814;2023-11-19T01:48:02;100517.28;;;13.11;100.00
60244;BME280;46106;51.468;5.814;2023-11-19T01:50:32;100524.34;;;13.03;100.00
60244;BME280;46106;51.468;5.814;2023-11-19T01:52:58;100543.31;;;13.06;100.00
60244;BME280;46106;51.468;5.814;2023-11-19T01:55:24;100546.81;;;12.99;100.00
60244;BME280;46106;51.468;5.814;2023-11-19T01:57:52;100543.59;;;13.03;100.00
60244;BME280;46106;51.468;5.814;2023-11-19T02:00:18;100532.47;;;13.05;100.00
60244;BME280;46106;51.468;5.814;2023-11-19T02:02:46;100542.44;;;13.16;100.00
60244;BME280;46106;51.468;5.814;2023-11-19T02:05:13;100541.16;;;13.10;100.00
60244;BME280;46106;51.468;5.814;2023-11-19T02:07:39;100533.78;;;13.11;100.00
60244;BME280;46106;51.468;5.814;2023-11-19T02:10:05;100551.97;;;13.12;100.00
60244;BME280;46106;51.468;5.814;2023-11-19T02:12:32;100535.34;;;13.03;100.00
60244;BME280;46106;51.468;5.814;2023-11-19T02:15:02;100538.41;;;12.91;100.00
60244;BME280;46106;51.468;5.814;2023-11-19T02:17:31;100528.00;;;13.04;100.00
60244;BME280;46106;51.468;5.814;2023-11-19T02:19:57;100536.81;;;13.08;100.00
60244;BME280;46106;51.468;5.814;2023-11-19T02:22:23;100539.56;;;13.08;100.00
60244;BME280;46106;51.468;5.814;2023-11-19T02:24:52;100539.69;;;13.16;100.00
60244;BME280;46106;51.468;5.814;2023-11-19T02:27:53;100541.88;;;13.12;100.00
60244;BME280;46106;51.468;5.814;2023-11-19T02:30:21;100536.22;;;13.14;100.00
60244;BME280;46106;51.468;5.814;2023-11-19T02:32:54;100530.59;;;13.05;100.00
60244;BME280;46106;51.468;5.814;2023-11-19T02:35:29;100526.38;;;13.01;100.00
60244;BME280;46106;51.468;5.814;2023-11-19T02:37:59;100525.97;;;12.96;100.00
60244;BME280;46106;51.468;5.814;2023-11-19T02:40:25;100517.56;;;12.88;100.00
60244;BME280;46106;51.468;5.814;2023-11-19T02:42:52;100518.44;;;12.88;100.00
60244;BME280;46106;51.468;5.814;2023-11-19T02:45:19;100512.09;;;12.78;100.00
60244;BME280;46106;51.468;5.814;2023-11-19T02:47:47;100511.94;;;12.80;100.00
60244;BME280;46106;51.468;5.814;2023-11-19T02:50:12;100512.22;;;12.77;100.00
60244;BME280;46106;51.468;5.814;2023-11-19T02:52:41;100511.22;;;12.87;100.00
60244;BME280;46106;51.468;5.814;2023-11-19T02:55:07;100502.56;;;12.73;100.00
60244;BME280;46106;51.468;5.814;2023-11-19T02:57:41;100504.69;;;12.79;100.00
60244;BME280;46106;51.468;5.814;2023-11-19T03:00:27;100509.03;;;12.72;100.00
60244;BME280;46106;51.468;5.814;2023-11-19T03:03:00;100517.84;;;12.65;100.00
60244;BME280;46106;51.468;5.814;2023-11-19T03:05:35;100511.22;;;12.68;100.00
60244;BME280;46106;51.468;5.814;2023-11-19T03:08:06;100511.78;;;12.72;100.00
60244;BME280;46106;51.468;5.814;2023-11-19T03:10:32;100520.03;;;12.62;100.00
60244;BME280;46106;51.468;5.814;2023-11-19T03:12:59;100510.34;;;12.67;100.00
60244;BME280;46106;51.468;5.814;2023-11-19T03:15:27;100510.78;;;12.53;100.00
60244;BME280;46106;51.468;5.814;2023-11-19T03:17:52;100508.28;;;12.40;100.00
60244;BME280;46106;51.468;5.814;2023-11-19T03:20:18;100496.88;;;12.45;100.00
60244;BME280;46106;51.468;5.814;2023-11-19T03:22:43;100509.72;;;12.44;100.00
60244;BME280;46106;51.468;5.814;2023-11-19T03:25:09;100515.81;;;12.38;100.00
60244;BME280;46106;51.468;5.814;2023-11-19T03:27:36;100525.50;;;12.42;100.00
60244;BME280;46106;51.468;5.814;2023-11-19T03:30:02;100531.25;;;12.39;100.00
60244;BME280;46106;51.468;5.814;2023-11-19T03:32:30;100535.31;;;12.35;100.00
60244;BME280;46106;51.468;5.814;2023-11-19T03:34:56;100523.72;;;12.22;100.00
60244;BME280;46106;51.468;5.814;2023-11-19T03:37:21;100527.56;;;12.09;100.00
60244;BME280;46106;51.468;5.814;2023-11-19T03:39:47;100525.31;;;12.24;100.00
60244;BME280;46106;51.468;5.814;2023-11-19T03:42:12;100537.75;;;12.28;100.00
60244;BME280;46106;51.468;5.814;2023-11-19T03:44:38;100526.34;;;12.23;100.00
60244;BME280;46106;51.468;5.814;2023-11-19T03:47:04;100525.00;;;12.18;100.00
60244;BME280;46106;51.468;5.814;2023-11-19T03:49:29;100528.47;;;12.20;100.00
60244;BME280;46106;51.468;5.814;2023-11-19T03:51:55;100518.97;;;12.24;100.00
60244;BME280;46106;51.468;5.814;2023-11-19T03:54:20;100521.22;;;12.09;100.00
60244;BME280;46106;51.468;5.814;2023-11-19T03:56:48;100521.94;;;12.11;100.00
60244;BME280;46106;51.468;5.814;2023-11-19T03:59:14;100518.38;;;12.20;100.00
60244;BME280;46106;51.468;5.814;2023-11-19T04:01:40;100536.28;;;12.24;100.00
60244;BME280;46106;51.468;5.814;2023-11-19T04:04:06;100532.94;;;12.11;100.00
60244;BME280;46106;51.468;5.814;2023-11-19T04:06:31;100524.06;;;11.98;100.00
60244;BME280;46106;51.468;5.814;2023-11-19T04:08:58;100539.41;;;12.10;100.00
60244;BME280;46106;51.468;5.814;2023-11-19T04:11:23;100532.75;;;12.03;100.00
60244;BME280;46106;51.468;5.814;2023-11-19T04:13:50;100527.31;;;12.12;100.00
60244;BME280;46106;51.468;5.814;2023-11-19T04:16:15;100529.75;;;12.06;100.00
60244;BME280;46106;51.468;5.814;2023-11-19T04:18:42;100524.34;;;11.94;100.00
60244;BME280;46106;51.468;5.814;2023-11-19T04:21:08;100521.34;;;11.98;100.00
60244;BME280;46106;51.468;5.814;2023-11-19T04:23:33;100521.63;;;12.04;100.00
60244;BME280;46106;51.468;5.814;2023-11-19T04:26:02;100526.53;;;12.01;100.00
60244;BME280;46106;51.468;5.814;2023-11-19T04:28:29;100528.44;;;12.10;100.00
60244;BME280;46106;51.468;5.814;2023-11-19T04:30:56;100531.47;;;12.17;100.00
60244;BME280;46106;51.468;5.814;2023-11-19T04:33:22;100530.19;;;12.11;100.00
60244;BME280;46106;51.468;5.814;2023-11-19T04:35:50;100534.81;;;12.10;100.00
60244;BME280;46106;51.468;5.814;2023-11-19T04:38:15;100527.31;;;12.12;100.00
60244;BME280;46106;51.468;5.814;2023-11-19T04:40:41;100538.31;;;12.22;100.00
60244;BME280;46106;51.468;5.814;2023-11-19T04:43:07;100540.47;;;12.19;100.00
60244;BME280;46106;51.468;5.814;2023-11-19T04:45:33;100539.16;;;12.23;100.00
60244;BME280;46106;51.468;5.814;2023-11-19T04:47:59;100535.28;;;12.25;100.00
60244;BME280;46106;51.468;5.814;2023-11-19T04:50:25;100535.84;;;12.19;100.00
60244;BME280;46106;51.468;5.814;2023-11-19T04:52:52;100536.97;;;12.17;100.00
60244;BME280;46106;51.468;5.814;2023-11-19T04:55:19;100530.75;;;12.14;100.00
60244;BME280;46106;51.468;5.814;2023-11-19T04:57:46;100531.94;;;12.12;100.00
60244;BME280;46106;51.468;5.814;2023-11-19T05:00:13;100544.03;;;12.09;100.00
60244;BME280;46106;51.468;5.814;2023-11-19T05:02:39;100545.47;;;12.04;100.00
60244;BME280;46106;51.468;5.814;2023-11-19T05:05:06;100544.41;;;11.95;100.00
60244;BME280;46106;51.468;5.814;2023-11-19T05:07:31;100552.06;;;11.91;100.00
60244;BME280;46106;51.468;5.814;2023-11-19T05:09:56;100553.16;;;11.79;100.00
60244;BME280;46106;51.468;5.814;2023-11-19T05:12:22;100560.66;;;11.87;100.00
60244;BME280;46106;51.468;5.814;2023-11-19T05:14:48;100559.09;;;11.84;100.00
60244;BME280;46106;51.468;5.814;2023-11-19T05:17:18;100566.78;;;11.90;100.00
60244;BME280;46106;51.468;5.814;2023-11-19T05:19:44;100559.53;;;11.89;100.00
60244;BME280;46106;51.468;5.814;2023-11-19T05:22:11;100553.91;;;11.91;100.00
60244;BME280;46106;51.468;5.814;2023-11-19T05:24:38;100551.97;;;11.82;100.00
60244;BME280;46106;51.468;5.814;2023-11-19T05:27:06;100552.25;;;11.78;100.00
60244;BME280;46106;51.468;5.814;2023-11-19T06:39:20;100582.78;;;11.22;100.00
60244;BME280;46106;51.468;5.814;2023-11-19T06:41:48;100589.06;;;11.13;100.00
60244;BME280;46106;51.468;5.814;2023-11-19T06:44:13;100588.50;;;10.98;100.00
60244;BME280;46106;51.468;5.814;2023-11-19T06:46:41;100580.47;;;10.85;100.00
60244;BME280;46106;51.468;5.814;2023-11-19T06:49:07;100573.44;;;11.03;100.00
60244;BME280;46106;51.468;5.814;2023-11-19T06:51:35;100572.53;;;11.03;100.00
60244;BME280;46106;51.468;5.814;2023-11-19T06:54:07;100571.06;;;10.99;100.00
60244;BME280;46106;51.468;5.814;2023-11-19T06:56:32;100570.31;;;10.97;100.00
60244;BME280;46106;51.468;5.814;2023-11-19T06:58:58;100574.34;;;10.93;100.00
60244;BME280;46106;51.468;5.814;2023-11-19T07:01:24;100572.31;;;10.95;100.00
60244;BME280;46106;51.468;5.814;2023-11-19T07:03:50;100581.59;;;10.82;100.00
60244;BME280;46106;51.468;5.814;2023-11-19T07:06:16;100584.00;;;10.76;100.00
60244;BME280;46106;51.468;5.814;2023-11-19T07:08:43;100577.53;;;10.65;100.00
60244;BME280;46106;51.468;5.814;2023-11-19T07:11:10;100581.16;;;10.66;100.00
60244;BME280;46106;51.468;5.814;2023-11-19T07:13:37;100586.59;;;10.77;100.00
60244;BME280;46106;51.468;5.814;2023-11-19T07:16:04;100602.72;;;10.92;100.00
60244;BME280;46106;51.468;5.814;2023-11-19T07:18:29;100607.81;;;10.96;100.00
60244;BME280;46106;51.468;5.814;2023-11-19T07:20:54;100615.16;;;10.96;100.00
60244;BME280;46106;51.468;5.814;2023-11-19T07:23:20;100613.31;;;10.85;100.00
60244;BME280;46106;51.468;5.814;2023-11-19T07:25:47;100610.72;;;10.83;100.00
60244;BME280;46106;51.468;5.814;2023-11-19T07:28:15;100618.28;;;10.91;100.00
60244;BME280;46106;51.468;5.814;2023-11-19T07:30:40;100624.97;;;10.98;100.00
60244;BME280;46106;51.468;5.814;2023-11-19T07:33:06;100628.72;;;10.97;100.00
60244;BME280;46106;51.468;5.814;2023-11-19T07:35:33;100631.50;;;10.86;100.00
60244;BME280;46106;51.468;5.814;2023-11-19T07:37:59;100627.81;;;10.76;100.00
60244;BME280;46106;51.468;5.814;2023-11-19T07:40:24;100637.59;;;11.22;100.00
60244;BME280;46106;51.468;5.814;2023-11-19T07:42:53;100641.06;;;11.24;100.00
60244;BME280;46106;51.468;5.814;2023-11-19T07:45:20;100644.16;;;11.31;100.00
60244;BME280;46106;51.468;5.814;2023-11-19T07:47:47;100650.66;;;11.30;100.00
60244;BME280;46106;51.468;5.814;2023-11-19T07:50:15;100644.06;;;11.21;100.00
60244;BME280;46106;51.468;5.814;2023-11-19T07:52:43;100633.72;;;11.25;100.00
60244;BME280;46106;51.468;5.814;2023-11-19T07:55:08;100638.00;;;11.17;100.00
60244;BME280;46106;51.468;5.814;2023-11-19T07:57:34;100637.53;;;11.12;100.00
60244;BME280;46106;51.468;5.814;2023-11-19T07:59:59;100634.41;;;11.17;100.00
60244;BME280;46106;51.468;5.814;2023-11-19T08:02:26;100617.59;;;11.10;100.00
60244;BME280;46106;51.468;5.814;2023-11-19T08:04:52;100623.31;;;11.18;100.00
60244;BME280;46106;51.468;5.814;2023-11-19T08:07:21;100632.50;;;11.17;100.00
60244;BME280;46106;51.468;5.814;2023-11-19T08:09:47;100644.88;;;11.33;100.00
60244;BME280;46106;51.468;5.814;2023-11-19T08:12:13;100655.84;;;11.33;100.00
60244;BME280;46106;51.468;5.814;2023-11-19T08:14:42;100644.75;;;11.34;100.00
60244;BME280;46106;51.468;5.814;2023-11-19T08:17:07;100639.69;;;11.30;100.00
60244;BME280;46106;51.468;5.814;2023-11-19T08:19:33;100652.63;;;11.28;100.00
60244;BME280;46106;51.468;5.814;2023-11-19T08:21:58;100652.38;;;11.31;100.00
60244;BME280;46106;51.468;5.814;2023-11-19T08:24:24;100651.53;;;11.30;100.00
60244;BME280;46106;51.468;5.814;2023-11-19T08:26:49;100646.25;;;11.38;100.00
60244;BME280;46106;51.468;5.814;2023-11-19T08:29:15;100654.09;;;11.43;100.00
60244;BME280;46106;51.468;5.814;2023-11-19T08:31:40;100664.72;;;11.36;100.00
60244;BME280;46106;51.468;5.814;2023-11-19T08:34:06;100653.28;;;11.52;100.00
60244;BME280;46106;51.468;5.814;2023-11-19T08:36:34;100655.69;;;11.67;100.00
60244;BME280;46106;51.468;5.814;2023-11-19T08:38:59;100656.16;;;11.72;100.00
60244;BME280;46106;51.468;5.814;2023-11-19T08:41:25;100652.41;;;11.73;100.00
60244;BME280;46106;51.468;5.814;2023-11-19T08:43:50;100669.66;;;11.85;100.00
60244;BME280;46106;51.468;5.814;2023-11-19T08:46:17;100652.63;;;11.81;100.00
60244;BME280;46106;51.468;5.814;2023-11-19T08:48:42;100650.59;;;11.83;100.00
60244;BME280;46106;51.468;5.814;2023-11-19T08:51:08;100652.47;;;11.83;100.00
60244;BME280;46106;51.468;5.814;2023-11-19T08:53:34;100651.59;;;11.82;100.00
60244;BME280;46106;51.468;5.814;2023-11-19T08:55:59;100643.22;;;11.84;100.00
60244;BME280;46106;51.468;5.814;2023-11-19T08:58:25;100643.53;;;11.81;100.00
60244;BME280;46106;51.468;5.814;2023-11-19T09:00:51;100643.78;;;11.77;100.00
60244;BME280;46106;51.468;5.814;2023-11-19T09:03:16;100652.78;;;12.01;100.00
60244;BME280;46106;51.468;5.814;2023-11-19T09:05:42;100634.97;;;11.95;100.00
60244;BME280;46106;51.468;5.814;2023-11-19T09:08:07;100632.25;;;12.05;100.00
60244;BME280;46106;51.468;5.814;2023-11-19T09:10:33;100622.59;;;12.01;100.00
60244;BME280;46106;51.468;5.814;2023-11-19T09:12:59;100634.56;;;12.00;100.00
60244;BME280;46106;51.468;5.814;2023-11-19T09:15:25;100644.34;;;11.92;100.00
60244;BME280;46106;51.468;5.814;2023-11-19T09:17:50;100644.06;;;11.95;100.00
60244;BME280;46106;51.468;5.814;2023-11-19T09:20:16;100640.69;;;12.13;100.00
60244;BME280;46106;51.468;5.814;2023-11-19T09:22:41;100655.03;;;12.26;100.00
60244;BME280;46106;51.468;5.814;2023-11-19T09:25:07;100656.75;;;12.18;100.00
60244;BME280;46106;51.468;5.814;2023-11-19T09:27:33;100658.81;;;12.25;100.00
60244;BME280;46106;51.468;5.814;2023-11-19T09:29:58;100645.28;;;12.34;100.00
60244;BME280;46106;51.468;5.814;2023-11-19T09:32:24;100647.91;;;12.45;100.00
60244;BME280;46106;51.468;5.814;2023-11-19T09:34:50;100646.72;;;12.38;100.00
60244;BME280;46106;51.468;5.814;2023-11-19T09:37:15;100653.06;;;12.28;100.00
60244;BME280;46106;51.468;5.814;2023-11-19T09:39:41;100650.19;;;12.30;100.00
60244;BME280;46106;51.468;5.814;2023-11-19T09:42:09;100656.56;;;12.40;100.00
60244;BME280;46106;51.468;5.814;2023-11-19T09:44:37;100652.47;;;12.25;100.00
60244;BME280;46106;51.468;5.814;2023-11-19T09:47:04;100643.69;;;12.41;100.00
60244;BME280;46106;51.468;5.814;2023-11-19T09:49:30;100644.47;;;12.62;100.00
60244;BME280;46106;51.468;5.814;2023-11-19T09:51:56;100645.66;;;12.60;100.00
60244;BME280;46106;51.468;5.814;2023-11-19T09:54:22;100652.16;;;12.68;100.00
60244;BME280;46106;51.468;5.814;2023-11-19T09:56:48;100649.69;;;12.65;100.00
60244;BME280;46106;51.468;5.814;2023-11-19T09:59:14;100657.84;;;12.77;100.00
60244;BME280;46106;51.468;5.814;2023-11-19T10:01:39;100655.53;;;12.92;100.00
60244;BME280;46106;51.468;5.814;2023-11-19T10:04:06;100644.69;;;12.90;100.00
60244;BME280;46106;51.468;5.814;2023-11-19T10:06:32;100655.09;;;12.86;100.00
60244;BME280;46106;51.468;5.814;2023-11-19T10:08:58;100642.84;;;12.91;100.00
60244;BME280;46106;51.468;5.814;2023-11-19T10:11:24;100648.34;;;13.00;100.00
60244;BME280;46106;51.468;5.814;2023-11-19T10:13:51;100660.53;;;13.27;100.00
60244;BME280;46106;51.468;5.814;2023-11-19T10:16:17;100652.41;;;13.26;100.00
60244;BME280;46106;51.468;5.814;2023-11-19T10:18:46;100654.16;;;13.17;100.00
60244;BME280;46106;51.468;5.814;2023-11-19T10:21:13;100649.66;;;13.06;100.00
60244;BME280;46106;51.468;5.814;2023-11-19T10:23:49;100646.06;;;13.25;100.00
60244;BME280;46106;51.468;5.814;2023-11-19T10:26:15;100642.69;;;13.31;100.00
60244;BME280;46106;51.468;5.814;2023-11-19T10:28:43;100647.22;;;13.52;100.00
60244;BME280;46106;51.468;5.814;2023-11-19T10:31:14;100648.63;;;13.75;100.00
60244;BME280;46106;51.468;5.814;2023-11-19T10:33:40;100652.59;;;13.63;100.00
60244;BME280;46106;51.468;5.814;2023-11-19T10:36:06;100655.63;;;13.40;100.00
60244;BME280;46106;51.468;5.814;2023-11-19T10:38:32;100641.44;;;13.55;100.00
60244;BME280;46106;51.468;5.814;2023-11-19T10:40:58;100656.91;;;13.46;100.00
60244;BME280;46106;51.468;5.814;2023-11-19T10:43:28;100639.56;;;13.36;100.00
60244;BME280;46106;51.468;5.814;2023-11-19T10:45:53;100645.03;;;13.16;100.00
60244;BME280;46106;51.468;5.814;2023-11-19T10:48:19;100648.38;;;13.10;100.00
60244;BME280;46106;51.468;5.814;2023-11-19T10:50:46;100635.19;;;13.14;100.00
60244;BME280;46106;51.468;5.814;2023-11-19T10:53:15;100647.75;;;13.16;100.00
60244;BME280;46106;51.468;5.814;2023-11-19T10:55:41;100635.50;;;13.30;100.00
60244;BME280;46106;51.468;5.814;2023-11-19T10:58:08;100643.03;;;13.38;100.00
60244;BME280;46106;51.468;5.814;2023-11-19T11:00:46;100638.13;;;13.61;100.00
60244;BME280;46106;51.468;5.814;2023-11-19T11:03:18;100630.00;;;13.50;100.00
60244;BME280;46106;51.468;5.814;2023-11-19T11:05:46;100629.25;;;13.57;100.00
60244;BME280;46106;51.468;5.814;2023-11-19T11:08:13;100626.50;;;13.67;100.00
60244;BME280;46106;51.468;5.814;2023-11-19T11:10:47;100622.06;;;13.47;100.00
60244;BME280;46106;51.468;5.814;2023-11-19T11:13:13;100624.38;;;13.41;100.00
60244;BME280;46106;51.468;5.814;2023-11-19T11:15:39;100624.09;;;13.35;100.00
60244;BME280;46106;51.468;5.814;2023-11-19T11:18:09;100617.66;;;13.24;100.00
60244;BME280;46106;51.468;5.814;2023-11-19T11:20:35;100636.63;;;13.18;100.00
60244;BME280;46106;51.468;5.814;2023-11-19T11:28:43;100616.25;;;13.11;100.00
60244;BME280;46106;51.468;5.814;2023-11-19T11:39:29;100602.31;;;12.83;100.00
60244;BME280;46106;51.468;5.814;2023-11-19T11:45:07;100599.41;;;12.65;100.00
60244;BME280;46106;51.468;5.814;2023-11-19T11:50:09;100608.16;;;12.49;100.00
60244;BME280;46106;51.468;5.814;2023-11-19T11:55:34;100602.50;;;12.41;100.00
60244;BME280;46106;51.468;5.814;2023-11-19T11:58:05;100596.28;;;12.39;100.00
60244;BME280;46106;51.468;5.814;2023-11-19T12:00:31;100602.84;;;12.17;100.00
60244;BME280;46106;51.468;5.814;2023-11-19T12:03:01;100603.06;;;12.25;100.00
60244;BME280;46106;51.468;5.814;2023-11-19T12:05:28;100600.31;;;12.35;100.00
60244;BME280;46106;51.468;5.814;2023-11-19T12:08:06;100596.13;;;12.30;100.00
60244;BME280;46106;51.468;5.814;2023-11-19T12:10:44;100593.06;;;12.24;100.00
60244;BME280;46106;51.468;5.814;2023-11-19T12:13:14;100590.91;;;12.27;100.00
60244;BME280;46106;51.468;5.814;2023-11-19T12:18:26;100577.94;;;12.39;100.00
60244;BME280;46106;51.468;5.814;2023-11-19T12:20:54;100573.91;;;12.43;100.00
60244;BME280;46106;51.468;5.814;2023-11-19T12:23:21;100572.59;;;12.47;100.00
60244;BME280;46106;51.468;5.814;2023-11-19T12:25:47;100577.25;;;12.47;100.00
60244;BME280;46106;51.468;5.814;2023-11-19T12:28:25;100583.31;;;12.50;100.00
60244;BME280;46106;51.468;5.814;2023-11-19T12:30:54;100577.69;;;12.52;100.00
60244;BME280;46106;51.468;5.814;2023-11-19T12:33:33;100577.41;;;12.55;100.00
60244;BME280;46106;51.468;5.814;2023-11-19T12:36:29;100574.38;;;12.58;100.00
60244;BME280;46106;51.468;5.814;2023-11-19T13:04:56;100587.56;;;12.64;100.00
60244;BME280;46106;51.468;5.814;2023-11-19T13:07:21;100585.50;;;12.57;100.00
60244;BME280;46106;51.468;5.814;2023-11-19T13:09:47;100573.22;;;12.61;100.00
60244;BME280;46106;51.468;5.814;2023-11-19T13:12:14;100571.19;;;12.53;100.00
60244;BME280;46106;51.468;5.814;2023-11-19T13:14:42;100565.28;;;12.58;100.00
60244;BME280;46106;51.468;5.814;2023-11-19T13:17:13;100568.59;;;12.52;100.00
60244;BME280;46106;51.468;5.814;2023-11-19T13:19:38;100570.16;;;12.54;100.00
60244;BME280;46106;51.468;5.814;2023-11-19T13:22:03;100556.56;;;12.33;100.00
60244;BME280;46106;51.468;5.814;2023-11-19T13:24:29;100560.72;;;12.27;100.00
60244;BME280;46106;51.468;5.814;2023-11-19T13:26:55;100572.84;;;12.25;100.00
60244;BME280;46106;51.468;5.814;2023-11-19T13:29:21;100581.00;;;12.05;100.00
60244;BME280;46106;51.468;5.814;2023-11-19T13:31:46;100554.84;;;11.80;100.00
60244;BME280;46106;51.468;5.814;2023-11-19T13:34:12;100570.31;;;11.81;100.00
60244;BME280;46106;51.468;5.814;2023-11-19T13:36:38;100559.56;;;11.68;100.00
60244;BME280;46106;51.468;5.814;2023-11-19T13:39:04;100568.75;;;11.88;100.00
60244;BME280;46106;51.468;5.814;2023-11-19T13:41:30;100559.94;;;11.85;100.00
60244;BME280;46106;51.468;5.814;2023-11-19T13:43:55;100553.06;;;11.90;100.00
60244;BME280;46106;51.468;5.814;2023-11-19T13:46:21;100568.88;;;12.08;100.00
60244;BME280;46106;51.468;5.814;2023-11-19T13:48:46;100573.28;;;12.20;100.00
60244;BME280;46106;51.468;5.814;2023-11-19T13:51:14;100577.88;;;12.20;100.00
60244;BME280;46106;51.468;5.814;2023-11-19T13:53:40;100566.44;;;12.14;100.00
60244;BME280;46106;51.468;5.814;2023-11-19T13:56:06;100559.38;;;12.12;100.00
60244;BME280;46106;51.468;5.814;2023-11-19T13:58:32;100556.91;;;12.09;100.00
60244;BME280;46106;51.468;5.814;2023-11-19T14:00:58;100549.22;;;12.03;100.00
60244;BME280;46106;51.468;5.814;2023-11-19T14:03:24;100557.53;;;11.91;100.00
60244;BME280;46106;51.468;5.814;2023-11-19T14:05:49;100556.94;;;11.88;100.00
60244;BME280;46106;51.468;5.814;2023-11-19T14:08:17;100551.31;;;11.89;100.00
60244;BME280;46106;51.468;5.814;2023-11-19T14:10:42;100560.06;;;12.04;100.00
60244;BME280;46106;51.468;5.814;2023-11-19T14:13:08;100554.78;;;12.22;100.00
60244;BME280;46106;51.468;5.814;2023-11-19T14:15:34;100536.97;;;12.07;100.00
60244;BME280;46106;51.468;5.814;2023-11-19T14:18:01;100538.25;;;12.03;100.00
60244;BME280;46106;51.468;5.814;2023-11-19T14:20:27;100543.56;;;11.94;100.00
60244;BME280;46106;51.468;5.814;2023-11-19T14:22:52;100550.94;;;11.94;100.00
60244;BME280;46106;51.468;5.814;2023-11-19T14:25:18;100553.66;;;11.94;100.00
60244;BME280;46106;51.468;5.814;2023-11-19T14:27:45;100559.41;;;11.91;100.00
60244;BME280;46106;51.468;5.814;2023-11-19T14:30:13;100556.78;;;11.89;100.00
60244;BME280;46106;51.468;5.814;2023-11-19T14:32:41;100547.03;;;11.75;100.00
60244;BME280;46106;51.468;5.814;2023-11-19T14:35:09;100565.38;;;11.75;100.00
60244;BME280;46106;51.468;5.814;2023-11-19T14:37:34;100569.81;;;11.66;100.00
60244;BME280;46106;51.468;5.814;2023-11-19T14:40:00;100572.75;;;11.53;100.00